Terminal Aerodrome Forecast
Issued by NWS

Home | Current Version | Previous Version | Text Only | Print | Product List | Glossary On
Versions: 1 2 3 4 5 6 7 8 9 10 11 12 13 14 15
000
FTUS43 KEAX 081125
TAFSTJ
TAF
KSTJ 081125Z 0812/0912 33027G35KT P6SM -SN OVC050
      TEMPO 0812/0816 4SM -SHSN BKN035
     FM081600 33030G40KT P6SM OVC050
      TEMPO 0816/0818 5SM -SHSN BKN035
     FM082300 33018G24KT P6SM BKN050
     FM090300 33014KT P6SM SCT050=

USA.gov is the U.S. government's official web portal to all federal, state and local government web resources and services.